Time;durP1;ratioP1;P1;durP2;ratioP2;P2;SDS_P1;SDS_P2;PMS_P1;PMS_P2;Temp;Humidity;BMP_temperature;BMP_pressure;BME280_temperature;BME280_humidity;BME280_pressure;Samples;Min_cycle;Max_cycle;Signal;HPM_P1;HPM_P2
2023/06/21 00:01:46;;;;;;;5.60;4.20;;;;;;;19.84;100.00;100089.36;105267;1259;61847;-64
2023/06/21 00:04:13;;;;;;;6.00;4.80;;;;;;;19.75;100.00;100095.18;104490;1260;61260;-63
2023/06/21 00:06:40;;;;;;;9.50;5.00;;;;;;;19.66;100.00;100106.35;104834;1260;73239;-62
2023/06/21 00:09:07;;;;;;;6.90;5.20;;;;;;;19.58;100.00;100110.08;104783;1262;67018;-64
2023/06/21 00:11:34;;;;;;;7.50;6.00;;;;;;;19.51;100.00;100113.48;104703;1267;71345;-63
2023/06/21 00:14:01;;;;;;;8.90;6.70;;;;;;;19.43;100.00;100115.23;104735;1267;61991;-73
2023/06/21 00:16:29;;;;;;;8.10;6.40;;;;;;;19.36;100.00;100110.80;105353;1267;61301;-63
2023/06/21 00:18:57;;;;;;;7.80;6.50;;;;;;;19.32;100.00;100108.89;104886;1262;72672;-63
2023/06/21 00:21:24;;;;;;;6.60;5.30;;;;;;;19.25;100.00;100110.65;104716;1262;67076;-63
2023/06/21 00:23:52;;;;;;;10.80;7.20;;;;;;;19.20;100.00;100112.08;104513;1261;72600;-72
2023/06/21 00:26:19;;;;;;;11.70;8.70;;;;;;;19.18;100.00;100118.29;105458;1260;61594;-64
2023/06/21 00:28:46;;;;;;;10.00;8.50;;;;;;;19.13;100.00;100115.99;105017;1260;61214;-63
2023/06/21 00:31:13;;;;;;;10.70;8.10;;;;;;;19.04;100.00;100113.42;104759;1261;73637;-63
2023/06/21 00:33:40;;;;;;;11.10;7.60;;;;;;;18.97;100.00;100116.39;104872;1260;66456;-62
2023/06/21 00:36:07;;;;;;;8.70;6.30;;;;;;;18.91;100.00;100116.77;105271;1262;73432;-72
2023/06/21 00:38:34;;;;;;;8.30;6.70;;;;;;;18.85;100.00;100119.37;104914;1261;62316;-63
2023/06/21 00:41:05;;;;;;;6.60;5.90;;;;;;;18.81;100.00;100119.26;105121;1264;61269;-62
2023/06/21 00:43:32;;;;;;;7.40;6.20;;;;;;;18.79;100.00;100117.11;104681;1267;74804;-62
2023/06/21 00:46:00;;;;;;;8.20;5.80;;;;;;;18.77;100.00;100114.76;104885;1266;66106;-72
2023/06/21 00:48:28;;;;;;;8.00;5.90;;;;;;;18.79;100.00;100122.66;104793;1265;71146;-63
2023/06/21 00:50:58;;;;;;;8.50;5.30;;;;;;;18.79;100.00;100125.71;104919;1261;62187;-62
2023/06/21 00:53:26;;;;;;;6.60;5.40;;;;;;;18.77;100.00;100128.39;105021;1263;61209;-62
2023/06/21 00:55:56;;;;;;;7.70;5.60;;;;;;;18.76;100.00;100131.00;104460;1262;73364;-63
2023/06/21 00:58:24;;;;;;;7.00;5.50;;;;;;;18.74;100.00;100128.65;104685;1261;67175;-62
2023/06/21 01:00:53;;;;;;;7.80;5.80;;;;;;;18.75;100.00;100129.14;104863;1262;73799;-62
2023/06/21 01:03:23;;;;;;;8.20;5.60;;;;;;;18.74;100.00;100127.91;105213;1263;61429;-74
2023/06/21 01:06:14;;;;;;;6.30;5.50;;;;;;;18.72;100.00;100128.16;104961;1262;61399;-63
2023/06/21 01:09:03;;;;;;;6.60;5.50;;;;;;;18.75;100.00;100126.43;104827;1264;74901;-62
2023/06/21 01:11:31;;;;;;;7.10;5.50;;;;;;;18.75;100.00;100124.34;104950;1266;65867;-62
2023/06/21 01:14:11;;;;;;;7.60;5.80;;;;;;;18.77;100.00;100126.80;104640;1260;71577;-62
2023/06/21 01:16:41;;;;;;;6.40;5.60;;;;;;;18.77;100.00;100125.36;104572;1266;61237;-64
2023/06/21 01:19:16;;;;;;;7.20;5.60;;;;;;;18.75;100.00;100126.02;104469;1264;61254;-65
2023/06/21 01:21:43;;;;;;;7.60;5.70;;;;;;;18.71;100.00;100129.84;104911;1262;73469;-64
2023/06/21 01:24:24;;;;;;;8.30;6.90;;;;;;;18.67;100.00;100131.90;104587;1267;66032;-62
2023/06/21 01:27:22;;;;;;;7.70;6.40;;;;;;;18.61;100.00;100134.55;104850;1261;71000;-66
2023/06/21 01:29:50;;;;;;;8.10;5.60;;;;;;;18.51;100.00;100132.10;104957;1262;61880;-73
2023/06/21 01:32:17;;;;;;;6.80;5.30;;;;;;;18.44;100.00;100134.30;104716;1262;61357;-73
2023/06/21 01:34:44;;;;;;;7.30;4.80;;;;;;;18.39;100.00;100129.46;104791;1263;74267;-60
2023/06/21 01:37:12;;;;;;;7.60;4.90;;;;;;;18.34;100.00;100126.84;104676;1267;66468;-60
2023/06/21 01:39:40;;;;;;;6.90;5.00;;;;;;;18.29;100.00;100124.91;104607;1262;72863;-60
2023/06/21 01:42:07;;;;;;;5.90;4.90;;;;;;;18.23;100.00;100126.92;104991;1267;61289;-61
2023/06/21 01:44:34;;;;;;;9.30;7.80;;;;;;;18.20;100.00;100129.71;104517;1266;61098;-62
2023/06/21 01:47:01;;;;;;;11.80;9.30;;;;;;;18.17;100.00;100137.40;104624;1264;74725;-60
2023/06/21 01:49:28;;;;;;;8.90;7.30;;;;;;;18.13;100.00;100141.30;104619;1267;65875;-60
2023/06/21 01:51:55;;;;;;;6.70;5.90;;;;;;;18.11;100.00;100143.22;104775;1262;71262;-60
2023/06/21 01:54:25;;;;;;;6.10;5.10;;;;;;;18.10;100.00;100141.92;104386;1266;61862;-73
2023/06/21 01:56:54;;;;;;;6.00;5.00;;;;;;;18.10;100.00;100141.55;104724;1266;61198;-61
2023/06/21 01:59:24;;;;;;;7.30;4.90;;;;;;;18.10;100.00;100141.59;104562;1267;74525;-61
2023/06/21 02:01:51;;;;;;;5.80;5.10;;;;;;;18.10;100.00;100142.70;104625;1263;67234;-61
2023/06/21 02:04:18;;;;;;;6.20;5.20;;;;;;;18.11;100.00;100147.33;105084;1262;71758;-70
2023/06/21 02:06:45;;;;;;;7.70;5.00;;;;;;;18.11;100.00;100142.16;104619;1267;61894;-62
2023/06/21 02:09:13;;;;;;;6.40;4.70;;;;;;;18.11;100.00;100150.24;104526;1263;61262;-61
2023/06/21 02:11:40;;;;;;;6.30;4.90;;;;;;;18.12;100.00;100153.21;104639;1263;74487;-63
2023/06/21 02:14:08;;;;;;;6.20;5.30;;;;;;;18.14;100.00;100149.76;104917;1261;66362;-69
2023/06/21 02:16:35;;;;;;;7.10;5.40;;;;;;;18.16;100.00;100146.80;105434;1261;71520;-75
2023/06/21 02:19:03;;;;;;;6.20;4.80;;;;;;;18.17;100.00;100149.70;104763;1264;61271;-60
2023/06/21 02:21:30;;;;;;;7.00;5.50;;;;;;;18.20;100.00;100150.34;104758;1262;61108;-60
2023/06/21 02:23:58;;;;;;;6.30;5.00;;;;;;;18.21;100.00;100151.21;105066;1265;74689;-70
2023/06/21 02:26:25;;;;;;;7.30;5.20;;;;;;;18.25;100.00;100152.53;104837;1264;67209;-77
2023/06/21 02:28:52;;;;;;;6.60;5.50;;;;;;;18.27;100.00;100156.28;104737;1265;72525;-60
2023/06/21 02:31:19;;;;;;;7.80;4.80;;;;;;;18.30;100.00;100162.66;104711;1262;61801;-62
2023/06/21 02:33:48;;;;;;;6.90;5.60;;;;;;;18.34;100.00;100156.56;104709;1261;62075;-60
2023/06/21 02:36:15;;;;;;;6.80;5.60;;;;;;;18.38;100.00;100152.63;105368;1262;74663;-75
2023/06/21 02:38:42;;;;;;;6.80;5.10;;;;;;;18.41;100.00;100153.05;104826;1262;66722;-61
2023/06/21 02:41:09;;;;;;;6.50;5.20;;;;;;;18.44;100.00;100147.92;104998;1267;71366;-62
2023/06/21 02:43:36;;;;;;;6.10;5.00;;;;;;;18.48;100.00;100149.48;104693;1266;61653;-61
2023/06/21 02:46:03;;;;;;;5.40;4.60;;;;;;;18.52;100.00;100153.71;105197;1261;61249;-75
2023/06/21 02:48:30;;;;;;;7.00;5.10;;;;;;;18.56;100.00;100160.17;104789;1262;73438;-62
2023/06/21 02:50:57;;;;;;;6.70;5.10;;;;;;;18.61;100.00;100158.03;104696;1261;66034;-61
2023/06/21 02:53:26;;;;;;;6.90;4.60;;;;;;;18.67;100.00;100151.11;104693;1267;71589;-63
2023/06/21 02:55:53;;;;;;;6.00;4.80;;;;;;;18.75;100.00;100146.58;104731;1261;61926;-61
2023/06/21 02:58:21;;;;;;;7.20;5.00;;;;;;;18.85;100.00;100144.27;105534;1262;61466;-75
2023/06/21 03:00:47;;;;;;;5.50;4.90;;;;;;;18.97;100.00;100144.23;104819;1261;75222;-61
2023/06/21 03:03:15;;;;;;;6.20;5.00;;;;;;;19.09;100.00;100141.55;105620;1266;65929;-61
2023/06/21 03:05:44;;;;;;;7.70;4.60;;;;;;;19.23;100.00;100136.90;104668;1262;72710;-65
2023/06/21 03:08:12;;;;;;;6.70;4.90;;;;;;;19.34;100.00;100140.23;105208;1264;62081;-67
2023/06/21 03:10:41;;;;;;;5.40;4.40;;;;;;;19.42;100.00;100141.80;104709;1261;61264;-61
2023/06/21 03:13:08;;;;;;;6.30;5.10;;;;;;;19.48;100.00;100140.84;104690;1262;74768;-60
2023/06/21 03:15:35;;;;;;;6.70;5.00;;;;;;;19.52;100.00;100137.92;104624;1264;66940;-61
2023/06/21 03:18:03;;;;;;;6.30;5.10;;;;;;;19.55;100.00;100142.04;104935;1262;72750;-76
2023/06/21 03:20:30;;;;;;;7.70;4.90;;;;;;;19.57;100.00;100137.73;104984;1262;62743;-73
2023/06/21 03:23:00;;;;;;;9.20;5.70;;;;;;;19.62;100.00;100136.21;104726;1261;61344;-61
2023/06/21 03:25:28;;;;;;;5.60;4.40;;;;;;;19.71;100.00;100140.46;104714;1266;73460;-61
2023/06/21 03:27:59;;;;;;;6.80;4.50;;;;;;;19.88;100.00;100137.06;104670;1266;66153;-61
2023/06/21 03:30:26;;;;;;;6.10;5.00;;;;;;;20.09;100.00;100135.50;104981;1262;71330;-68
2023/06/21 03:32:54;;;;;;;5.70;4.60;;;;;;;20.25;100.00;100133.13;104584;1267;61291;-61
2023/06/21 03:35:22;;;;;;;6.70;5.00;;;;;;;20.41;100.00;100127.29;104541;1265;61169;-65
2023/06/21 03:37:50;;;;;;;5.70;4.70;;;;;;;20.60;100.00;100124.63;104554;1263;73492;-61
2023/06/21 03:40:21;;;;;;;6.40;4.40;;;;;;;20.95;100.00;100119.81;105536;1262;67673;-73
2023/06/21 03:42:48;;;;;;;6.10;5.00;;;;;;;21.49;100.00;100119.71;104828;1262;73645;-62
2023/06/21 03:45:15;;;;;;;5.70;4.60;;;;;;;22.30;100.00;100115.88;104534;1267;61271;-63
2023/06/21 03:47:44;;;;;;;5.90;5.10;;;;;;;23.33;100.00;100101.73;104538;1266;61139;-62
2023/06/21 03:50:12;;;;;;;9.00;5.10;;;;;;;24.40;100.00;100090.73;105607;1265;73065;-75
2023/06/21 03:52:39;;;;;;;5.00;4.10;;;;;;;25.40;100.00;100072.80;104570;1262;67476;-74
2023/06/21 03:55:07;;;;;;;6.30;4.90;;;;;;;26.16;100.00;100052.33;104593;1265;72789;-63
2023/06/21 03:57:34;;;;;;;5.40;4.70;;;;;;;26.76;100.00;100038.55;104779;1262;61268;-64
2023/06/21 04:00:04;;;;;;;5.40;4.90;;;;;;;27.23;100.00;100036.91;104703;1262;61278;-64
2023/06/21 04:02:43;;;;;;;5.40;4.90;;;;;;;27.33;100.00;100035.58;104728;1263;73559;-64
2023/06/21 04:05:11;;;;;;;5.40;4.80;;;;;;;27.26;100.00;100040.35;104617;1264;67211;-63
2023/06/21 04:07:38;;;;;;;23.40;5.30;;;;;;;27.30;100.00;100040.95;104705;1266;72774;-63
2023/06/21 04:10:08;;;;;;;5.60;5.00;;;;;;;27.50;100.00;100038.91;104705;1261;61379;-65
2023/06/21 04:12:36;;;;;;;5.60;4.70;;;;;;;27.78;100.00;100034.09;105046;1262;61382;-66
2023/06/21 04:15:05;;;;;;;6.40;5.00;;;;;;;28.04;100.00;100036.98;104716;1264;75252;-65
2023/06/21 04:17:32;;;;;;;5.40;4.40;;;;;;;28.16;100.00;100035.33;104628;1264;67125;-65
2023/06/21 04:19:59;;;;;;;5.20;4.10;;;;;;;28.41;100.00;100034.73;104695;1267;72823;-66
2023/06/21 04:22:29;;;;;;;5.70;4.40;;;;;;;28.78;100.00;100038.38;104918;1262;61327;-66
2023/06/21 04:24:56;;;;;;;4.90;4.00;;;;;;;29.22;100.00;100033.98;104758;1266;61291;-65
2023/06/21 04:27:24;;;;;;;5.00;3.80;;;;;;;29.57;100.00;100035.34;104730;1261;73885;-66
2023/06/21 04:29:51;;;;;;;4.90;3.90;;;;;;;29.97;100.00;100029.27;104773;1262;65794;-70
2023/06/21 04:32:18;;;;;;;5.50;4.00;;;;;;;30.31;100.00;100036.42;104681;1262;72615;-66
2023/06/21 04:34:47;;;;;;;5.30;4.60;;;;;;;30.62;100.00;100036.17;104731;1262;61370;-70
2023/06/21 04:37:14;;;;;;;4.10;3.40;;;;;;;30.85;100.00;100036.11;104751;1266;61177;-67
2023/06/21 04:39:42;;;;;;;4.40;3.50;;;;;;;31.13;100.00;100038.76;104930;1263;73420;-69
2023/06/21 04:42:09;;;;;;;4.30;3.60;;;;;;;31.59;100.00;100038.79;104668;1266;65739;-68
2023/06/21 04:44:36;;;;;;;4.70;3.30;;;;;;;32.18;100.00;100038.13;104713;1268;71583;-68
2023/06/21 04:47:04;;;;;;;5.40;3.40;;;;;;;32.76;100.00;100037.30;104789;1267;61212;-70
2023/06/21 04:49:31;;;;;;;5.00;3.60;;;;;;;33.20;95.95;100041.67;104881;1262;61317;-68
2023/06/21 04:51:58;;;;;;;4.90;3.60;;;;;;;33.45;90.80;100044.73;104779;1262;74504;-69
2023/06/21 04:54:26;;;;;;;3.80;3.00;;;;;;;33.69;88.03;100044.59;104719;1262;61303;-69
2023/06/21 04:56:53;;;;;;;4.20;3.60;;;;;;;33.98;81.17;100047.10;104773;1262;72682;-73
2023/06/21 04:59:20;;;;;;;6.10;3.30;;;;;;;34.25;79.50;100044.11;104783;1262;61312;-73
2023/06/21 05:01:48;;;;;;;4.00;3.40;;;;;;;34.64;73.07;100045.88;105226;1262;61377;-69
2023/06/21 05:04:15;;;;;;;4.60;3.80;;;;;;;34.95;67.76;100045.45;104746;1261;65992;-67
2023/06/21 05:06:43;;;;;;;4.00;3.10;;;;;;;35.01;62.98;100046.69;105091;1262;61264;-69
2023/06/21 05:09:10;;;;;;;4.40;3.30;;;;;;;34.95;62.48;100048.08;104933;1264;64639;-71
2023/06/21 05:11:37;;;;;;;4.00;3.30;;;;;;;35.02;61.36;100044.70;105055;1262;61234;-69
2023/06/21 05:14:05;;;;;;;4.20;3.10;;;;;;;35.13;60.56;100046.02;104799;1264;61354;-70
2023/06/21 05:16:32;;;;;;;4.60;3.30;;;;;;;35.28;56.88;100047.89;104666;1262;64849;-69
2023/06/21 05:18:59;;;;;;;4.50;3.70;;;;;;;35.35;54.17;100047.59;104776;1261;67378;-70
2023/06/21 05:21:26;;;;;;;4.10;3.70;;;;;;;35.19;51.56;100050.48;105011;1260;63901;-70
2023/06/21 05:23:53;;;;;;;4.70;3.00;;;;;;;34.87;55.11;100054.85;105130;1264;61171;-69
2023/06/21 05:26:20;;;;;;;4.20;3.80;;;;;;;34.83;55.30;100052.27;105008;1260;63160;-69
2023/06/21 05:28:47;;;;;;;5.80;3.50;;;;;;;34.95;54.19;100047.67;104690;1260;66003;-68
2023/06/21 05:31:14;;;;;;;4.00;3.60;;;;;;;34.97;56.14;100044.09;104828;1261;61521;-69
2023/06/21 05:33:41;;;;;;;4.40;3.50;;;;;;;35.00;56.56;100046.42;105244;1263;62629;-69
2023/06/21 05:36:09;;;;;;;4.80;3.10;;;;;;;35.10;56.67;100048.12;104702;1264;61156;-68
2023/06/21 05:38:37;;;;;;;5.80;3.70;;;;;;;35.34;54.84;100046.08;104566;1260;61254;-68
2023/06/21 05:41:04;;;;;;;4.10;3.30;;;;;;;35.60;54.10;100044.77;105118;1262;66201;-69
2023/06/21 05:43:32;;;;;;;4.80;3.40;;;;;;;35.75;50.96;100045.86;104824;1261;61247;-68
2023/06/21 05:45:59;;;;;;;4.70;3.60;;;;;;;35.71;51.62;100044.46;104650;1262;64528;-66
2023/06/21 05:48:27;;;;;;;5.70;3.50;;;;;;;35.62;50.56;100041.58;104914;1262;61279;-67
2023/06/21 05:50:54;;;;;;;4.80;3.50;;;;;;;35.44;49.57;100039.86;104964;1259;61435;-67
2023/06/21 05:53:22;;;;;;;4.00;3.20;;;;;;;35.32;52.01;100037.60;105116;1263;64582;-67
2023/06/21 05:55:49;;;;;;;4.40;3.70;;;;;;;35.46;52.32;100036.89;105133;1262;61352;-66
2023/06/21 05:58:20;;;;;;;5.10;4.10;;;;;;;35.69;50.74;100036.75;104868;1265;64114;-67
2023/06/21 06:00:47;;;;;;;5.20;3.20;;;;;;;35.84;48.15;100039.36;104853;1264;61159;-67
2023/06/21 06:03:14;;;;;;;5.70;3.70;;;;;;;35.79;47.70;100039.42;105330;1264;61217;-67
2023/06/21 06:05:41;;;;;;;5.00;3.70;;;;;;;35.68;49.62;100037.19;105076;1260;64798;-68
2023/06/21 06:08:08;;;;;;;5.90;4.10;;;;;;;35.88;50.66;100036.66;104880;1260;59950;-67
2023/06/21 06:10:35;;;;;;;4.50;3.50;;;;;;;36.19;49.52;100037.07;104710;1259;64034;-67
2023/06/21 06:13:02;;;;;;;4.50;3.80;;;;;;;36.42;46.67;100034.23;104869;1264;61154;-67
2023/06/21 06:15:29;;;;;;;5.70;3.90;;;;;;;36.67;45.09;100031.91;105197;1263;61334;-69
2023/06/21 06:17:56;;;;;;;4.40;3.90;;;;;;;36.80;44.35;100033.05;104801;1263;66155;-68
2023/06/21 06:20:23;;;;;;;4.60;3.80;;;;;;;36.91;42.85;100032.20;104910;1259;61297;-67
2023/06/21 06:22:50;;;;;;;5.50;3.40;;;;;;;37.10;43.01;100034.88;104854;1260;62835;-68
2023/06/21 06:25:18;;;;;;;4.50;3.90;;;;;;;37.33;42.10;100037.20;105423;1259;61369;-67
2023/06/21 06:27:45;;;;;;;5.60;3.50;;;;;;;37.46;40.82;100036.46;105256;1259;61360;-68
2023/06/21 06:30:12;;;;;;;5.70;4.00;;;;;;;37.46;40.35;100037.86;104517;1264;66067;-67
2023/06/21 06:32:39;;;;;;;4.00;3.40;;;;;;;37.37;39.90;100035.08;104826;1267;61194;-68
2023/06/21 06:35:07;;;;;;;5.40;3.90;;;;;;;37.18;40.88;100033.44;105213;1260;71184;-67
2023/06/21 06:37:35;;;;;;;4.50;3.70;;;;;;;36.93;40.35;100031.69;105237;1265;61245;-68
2023/06/21 06:40:05;;;;;;;5.30;4.00;;;;;;;36.69;40.89;100029.92;105152;1259;61112;-67
2023/06/21 06:42:32;;;;;;;6.00;4.00;;;;;;;36.43;42.45;100031.65;104703;1262;64661;-67
2023/06/21 06:44:59;;;;;;;4.30;3.70;;;;;;;36.30;43.41;100036.80;104828;1264;61091;-65
2023/06/21 06:47:28;;;;;;;4.00;3.10;;;;;;;36.38;41.48;100030.41;105345;1259;64013;-67
2023/06/21 06:49:55;;;;;;;4.90;3.50;;;;;;;36.66;39.71;100028.48;105041;1265;61115;-67
2023/06/21 06:52:22;;;;;;;5.90;3.50;;;;;;;36.90;38.11;100034.52;104846;1259;61173;-65
2023/06/21 06:54:49;;;;;;;5.40;4.00;;;;;;;37.06;38.92;100034.99;105343;1263;66102;-66
2023/06/21 06:57:16;;;;;;;4.80;3.80;;;;;;;37.23;39.55;100036.85;104920;1263;61271;-65
2023/06/21 06:59:56;;;;;;;4.70;3.90;;;;;;;37.20;39.91;100039.22;104809;1259;62907;-66
2023/06/21 07:02:23;;;;;;;4.00;3.00;;;;;;;37.01;35.87;100044.31;104965;1262;61139;-67
2023/06/21 07:04:51;;;;;;;3.30;2.50;;;;;;;36.86;30.31;100046.79;104791;1264;59968;-67
2023/06/21 07:07:18;;;;;;;3.30;2.60;;;;;;;36.73;29.94;100046.42;104881;1264;65915;-66
2023/06/21 07:09:45;;;;;;;3.70;2.80;;;;;;;36.61;30.19;100047.41;105657;1263;61240;-66
2023/06/21 07:12:12;;;;;;;5.90;2.70;;;;;;;36.25;29.19;100048.04;105135;1262;62621;-66
2023/06/21 07:14:39;;;;;;;3.60;2.80;;;;;;;36.07;30.61;100048.89;105651;1262;59548;-68
2023/06/21 07:17:06;;;;;;;3.80;2.80;;;;;;;36.24;30.71;100047.71;105371;1259;61408;-67
2023/06/21 07:19:33;;;;;;;4.20;3.20;;;;;;;36.14;29.37;100046.52;105344;1259;64652;-66
2023/06/21 07:22:00;;;;;;;4.20;2.40;;;;;;;35.67;28.89;100048.32;105375;1263;61382;-67
2023/06/21 07:24:27;;;;;;;3.70;2.70;;;;;;;35.26;29.93;100044.51;105373;1265;64963;-67
2023/06/21 07:26:54;;;;;;;3.80;3.00;;;;;;;35.23;30.89;100049.34;105125;1265;61228;-66
2023/06/21 07:29:21;;;;;;;3.70;3.00;;;;;;;35.01;30.89;100052.16;105547;1263;60667;-67
2023/06/21 07:31:48;;;;;;;5.30;3.10;;;;;;;34.71;32.07;100061.66;104936;1265;64720;-66
2023/06/21 07:34:15;;;;;;;5.60;3.40;;;;;;;34.51;33.10;100062.27;105293;1263;67651;-67
2023/06/21 07:36:43;;;;;;;4.40;2.70;;;;;;;34.53;33.26;100062.67;105273;1262;64077;-67
2023/06/21 07:39:10;;;;;;;5.50;3.00;;;;;;;34.86;32.16;100067.91;105360;1263;61209;-66
2023/06/21 07:41:37;;;;;;;5.00;3.40;;;;;;;35.19;32.00;100064.66;104949;1262;61276;-66
2023/06/21 07:44:04;;;;;;;7.50;4.50;;;;;;;35.45;31.81;100065.60;104927;1265;64752;-65
2023/06/21 07:46:32;;;;;;;3.90;3.10;;;;;;;35.67;32.31;100067.92;104980;1260;61381;-65
2023/06/21 07:48:59;;;;;;;4.70;3.20;;;;;;;35.77;31.83;100064.34;104937;1265;63140;-65
2023/06/21 07:51:26;;;;;;;4.50;2.90;;;;;;;35.78;30.56;100064.34;105120;1259;61377;-65
2023/06/21 07:53:53;;;;;;;4.80;2.80;;;;;;;35.59;30.39;100066.38;105074;1263;61268;-65
2023/06/21 07:56:20;;;;;;;4.70;2.90;;;;;;;35.31;29.11;100066.77;104640;1265;65991;-65
2023/06/21 07:58:47;;;;;;;3.50;2.70;;;;;;;34.81;30.55;100066.77;105066;1262;62881;-67
2023/06/21 08:01:15;;;;;;;5.00;2.60;;;;;;;34.22;31.77;100066.14;105272;1262;71822;-65
2023/06/21 08:03:42;;;;;;;4.50;2.70;;;;;;;33.80;32.90;100068.46;104921;1261;61330;-64
2023/06/21 08:06:09;;;;;;;4.90;2.70;;;;;;;33.57;31.59;100067.26;104738;1261;61240;-65
2023/06/21 08:08:37;;;;;;;3.90;3.00;;;;;;;33.72;30.52;100066.38;105376;1261;64841;-64
2023/06/21 08:11:04;;;;;;;3.50;2.40;;;;;;;33.95;30.34;100066.02;104806;1262;61366;-66
2023/06/21 08:13:32;;;;;;;3.80;2.30;;;;;;;34.19;31.45;100067.06;105032;1262;62822;-66
2023/06/21 08:15:59;;;;;;;6.30;3.10;;;;;;;34.42;30.28;100063.25;105130;1261;61317;-65
2023/06/21 08:18:26;;;;;;;5.80;2.90;;;;;;;34.27;30.11;100067.51;105273;1260;61246;-66
2023/06/21 08:20:53;;;;;;;3.60;2.40;;;;;;;34.01;29.94;100076.05;105028;1262;65086;-66
2023/06/21 08:23:20;;;;;;;5.50;2.70;;;;;;;34.04;28.93;100070.92;105237;1264;67276;-67
2023/06/21 08:25:48;;;;;;;4.00;2.50;;;;;;;34.23;28.46;100068.08;105164;1262;62577;-67
2023/06/21 08:28:15;;;;;;;3.60;2.50;;;;;;;34.52;28.08;100069.39;105584;1262;61212;-67
2023/06/21 08:30:42;;;;;;;3.80;2.40;;;;;;;34.88;27.76;100069.51;105292;1262;61279;-66
2023/06/21 08:33:10;;;;;;;3.30;2.30;;;;;;;35.12;27.48;100065.96;105262;1264;65867;-66
2023/06/21 08:35:40;;;;;;;2.40;1.80;;;;;;;35.41;26.83;100063.20;105179;1261;61160;-67
2023/06/21 08:38:11;;;;;;;2.90;1.80;;;;;;;35.74;26.06;100060.09;105045;1264;62676;-66
2023/06/21 08:41:01;;;;;;;4.60;2.50;;;;;;;36.22;26.61;100062.16;105066;1262;61156;-66
2023/06/21 08:43:29;;;;;;;3.40;2.40;;;;;;;36.61;25.77;100065.41;104849;1276;61303;-66
2023/06/21 08:45:56;;;;;;;2.70;2.20;;;;;;;36.53;24.91;100065.42;104999;1262;64999;-66
2023/06/21 08:48:24;;;;;;;3.80;2.40;;;;;;;36.01;25.31;100068.67;105501;1260;61330;-67
2023/06/21 08:50:50;;;;;;;5.60;2.70;;;;;;;35.41;25.71;100070.39;105063;1262;64276;-66
2023/06/21 08:53:22;;;;;;;3.40;2.00;;;;;;;35.22;27.14;100071.46;105195;1269;61158;-66
2023/06/21 08:55:51;;;;;;;3.90;2.60;;;;;;;35.57;26.50;100071.52;104986;1262;61321;-66
2023/06/21 08:58:20;;;;;;;2.80;2.30;;;;;;;35.72;25.23;100070.38;105224;1262;64883;-67
2023/06/21 09:00:50;;;;;;;3.30;2.60;;;;;;;35.68;25.17;100067.25;105471;1267;61222;-66
2023/06/21 09:03:19;;;;;;;3.40;2.30;;;;;;;35.56;24.66;100070.19;105191;1264;62724;-65
2023/06/21 09:05:56;;;;;;;4.00;2.70;;;;;;;35.61;24.18;100070.92;105199;1262;61351;-65
2023/06/21 09:08:23;;;;;;;3.70;2.40;;;;;;;35.48;24.31;100073.41;105070;1262;61280;-66
2023/06/21 09:10:51;;;;;;;4.20;2.40;;;;;;;35.22;24.38;100074.70;105360;1263;65149;-65
2023/06/21 09:13:19;;;;;;;3.30;2.40;;;;;;;35.04;25.46;100081.13;105226;1262;67519;-66
2023/06/21 09:15:48;;;;;;;3.50;2.40;;;;;;;35.05;25.20;100078.20;105395;1262;62773;-65
2023/06/21 09:18:15;;;;;;;3.50;2.50;;;;;;;34.90;25.77;100079.44;104967;1265;355050;-66
2023/06/21 09:20:49;;;;;;;3.70;2.40;;;;;;;34.72;25.35;100077.16;105404;1264;60613;-66
2023/06/21 09:23:16;;;;;;;5.90;2.40;;;;;;;34.60;25.88;100074.86;105359;1261;74516;-66
2023/06/21 09:25:44;;;;;;;4.40;2.90;;;;;;;34.37;26.36;100079.59;105109;1262;67643;-65
2023/06/21 09:28:12;;;;;;;4.30;2.70;;;;;;;34.10;26.33;100074.88;105163;1261;62947;-66
2023/06/21 09:30:39;;;;;;;5.90;2.90;;;;;;;34.06;26.31;100070.83;105354;1261;61181;-66
2023/06/21 09:33:06;;;;;;;4.20;2.70;;;;;;;34.05;26.63;100071.34;105400;1263;60081;-67
2023/06/21 09:35:36;;;;;;;4.60;3.00;;;;;;;33.79;27.69;100074.14;105048;1267;73751;-66
2023/06/21 09:38:33;;;;;;;4.20;2.80;;;;;;;33.62;28.49;100072.83;105111;1262;67297;-66
2023/06/21 09:41:01;;;;;;;4.10;2.90;;;;;;;33.59;28.86;100070.82;105332;1262;62936;-67
2023/06/21 09:43:28;;;;;;;3.20;2.50;;;;;;;33.47;29.73;100073.21;105233;1266;61309;-66
2023/06/21 09:46:07;;;;;;;4.20;2.40;;;;;;;33.39;29.52;100073.52;105519;1262;61263;-67
2023/06/21 09:48:35;;;;;;;4.90;2.80;;;;;;;33.35;30.17;100070.30;105278;1264;74313;-67
2023/06/21 09:51:04;;;;;;;4.10;2.90;;;;;;;33.28;30.11;100070.40;105928;1265;65994;-66
2023/06/21 09:53:31;;;;;;;3.80;3.00;;;;;;;33.21;29.53;100072.19;105198;1265;72518;-66
2023/06/21 09:56:01;;;;;;;4.60;3.10;;;;;;;33.16;28.76;100071.65;105436;1264;61264;-66
2023/06/21 09:58:33;;;;;;;4.00;3.10;;;;;;;33.33;27.46;100073.70;105551;1260;61137;-67
2023/06/21 10:01:05;;;;;;;4.60;2.70;;;;;;;33.55;27.77;100074.98;105440;1263;65700;-66
2023/06/21 10:03:33;;;;;;;3.40;2.80;;;;;;;33.79;28.01;100075.63;105160;1262;65877;-66
2023/06/21 10:06:01;;;;;;;4.10;2.80;;;;;;;33.93;27.88;100072.77;105230;1264;71836;-66
2023/06/21 10:08:31;;;;;;;3.90;3.00;;;;;;;34.15;27.49;100073.83;104924;1265;61169;-67
2023/06/21 10:10:59;;;;;;;3.80;2.90;;;;;;;34.29;27.34;100073.36;105005;1264;61132;-67
2023/06/21 10:13:32;;;;;;;3.40;2.90;;;;;;;34.20;27.04;100074.50;105079;1263;74522;-66
2023/06/21 10:16:01;;;;;;;4.00;2.90;;;;;;;34.28;26.14;100072.70;104950;1261;68016;-66
2023/06/21 10:18:28;;;;;;;4.40;2.80;;;;;;;34.64;26.65;100074.49;105422;1261;64120;-67
2023/06/21 10:20:56;;;;;;;3.70;2.90;;;;;;;35.02;26.00;100071.94;105121;1266;61498;-67
2023/06/21 10:23:28;;;;;;;5.40;3.20;;;;;;;35.21;25.64;100066.65;104961;1266;61282;-66
2023/06/21 10:25:58;;;;;;;3.50;2.80;;;;;;;35.13;25.08;100072.80;105034;1264;73587;-67
2023/06/21 10:28:26;;;;;;;3.60;2.80;;;;;;;34.77;24.79;100076.36;105047;1264;61228;-67
2023/06/21 10:30:55;;;;;;;3.80;2.80;;;;;;;34.48;24.91;100075.32;105127;1262;63991;-66
2023/06/21 10:33:22;;;;;;;4.30;2.80;;;;;;;34.68;24.86;100070.32;105419;1267;61364;-67
2023/06/21 10:35:51;;;;;;;4.30;3.20;;;;;;;35.08;25.50;100075.24;105213;1265;61329;-67
2023/06/21 10:38:46;;;;;;;4.40;3.00;;;;;;;35.31;24.01;100075.60;105422;1265;64651;-66
2023/06/21 10:41:14;;;;;;;5.10;3.60;;;;;;;35.26;23.62;100073.95;105149;1265;60433;-64
2023/06/21 10:43:42;;;;;;;4.20;3.30;;;;;;;35.03;23.95;100078.14;104908;1263;62871;-64
2023/06/21 10:46:09;;;;;;;3.90;2.70;;;;;;;34.72;24.17;100081.02;104908;1265;61093;-64
2023/06/21 10:48:38;;;;;;;5.50;3.50;;;;;;;34.52;23.86;100074.25;105229;1265;61253;-64
2023/06/21 10:51:05;;;;;;;4.60;3.10;;;;;;;34.57;24.71;100075.02;104966;1261;66713;-65
2023/06/21 10:53:33;;;;;;;3.50;2.70;;;;;;;34.78;24.05;100074.30;105049;1263;65866;-65
2023/06/21 10:56:04;;;;;;;4.60;3.30;;;;;;;34.80;24.36;100071.09;105003;1268;64489;-65
2023/06/21 10:58:31;;;;;;;3.40;2.60;;;;;;;34.80;25.04;100073.64;104743;1260;61224;-65
2023/06/21 11:00:58;;;;;;;7.80;3.20;;;;;;;34.61;25.20;100072.40;105146;1263;61261;-65
2023/06/21 11:03:26;;;;;;;4.30;3.20;;;;;;;34.41;25.78;100077.69;104895;1264;67699;-61
2023/06/21 11:06:13;;;;;;;4.00;2.70;;;;;;;34.49;25.20;100075.90;104831;1264;67617;-64
2023/06/21 11:08:40;;;;;;;3.60;2.90;;;;;;;34.35;25.06;100075.59;105558;1259;71804;-65
2023/06/21 11:11:07;;;;;;;4.40;2.60;;;;;;;34.24;25.70;100074.39;104725;1265;61217;-63
2023/06/21 11:13:37;;;;;;;3.50;2.80;;;;;;;34.26;25.56;100079.78;104491;1259;61255;-62
2023/06/21 11:16:12;;;;;;;3.70;2.90;;;;;;;34.04;26.30;100080.11;105063;1263;67623;-65
2023/06/21 11:18:43;;;;;;;5.10;3.30;;;;;;;34.05;26.66;100080.13;104799;1266;61334;-63
2023/06/21 11:21:10;;;;;;;4.40;3.30;;;;;;;34.07;26.84;100085.82;105219;1264;65364;-64